Terminal Aerodrome Forecast
Issued by NWS Brownsville, TX

Home | Current Version | Previous Version | Text Only | Print | Product List | Glossary On
Versions: 1 2 3 4 5 6 7 8 9 10 11 12 13 14 15 16 17 18 19 20 21
079
FTUS44 KBRO 072320
TAFBRO
TAF
KBRO 072320Z 0800/0824 15011KT P6SM SKC
     FM080100 16006KT P6SM SCT250
     FM080600 VRB03KT P6SM SCT250
     FM080900 16002KT 5SM BR SCT250
     FM081300 36008G19KT P6SM SKC
     FM081800 02016G22KT P6SM SKC=

USA.gov is the U.S. government's official web portal to all federal, state and local government web resources and services.